sensor_id;sensor_type;location;lat;lon;timestamp;P1;durP1;ratioP1;P2;durP2;ratioP2
67456;SDS011;54319;52.038;4.640;2023-08-07T00:01:24;12.73;;;2.27;;
67456;SDS011;54319;52.038;4.640;2023-08-07T00:03:51;9.05;;;2.10;;
67456;SDS011;54319;52.038;4.640;2023-08-07T00:06:18;9.67;;;1.60;;
67456;SDS011;54319;52.038;4.640;2023-08-07T00:08:45;9.45;;;1.92;;
67456;SDS011;54319;52.038;4.640;2023-08-07T00:11:13;9.30;;;1.80;;
67456;SDS011;54319;52.038;4.640;2023-08-07T00:13:40;10.48;;;2.00;;
67456;SDS011;54319;52.038;4.640;2023-08-07T00:16:07;9.20;;;2.10;;
67456;SDS011;54319;52.038;4.640;2023-08-07T00:18:35;9.65;;;1.83;;
67456;SDS011;54319;52.038;4.640;2023-08-07T00:21:02;9.88;;;1.92;;
67456;SDS011;54319;52.038;4.640;2023-08-07T00:23:28;15.73;;;2.07;;
67456;SDS011;54319;52.038;4.640;2023-08-07T00:25:55;6.40;;;2.23;;
67456;SDS011;54319;52.038;4.640;2023-08-07T00:28:23;9.93;;;2.20;;
67456;SDS011;54319;52.038;4.640;2023-08-07T00:30:50;8.60;;;1.98;;
67456;SDS011;54319;52.038;4.640;2023-08-07T00:33:16;10.60;;;2.30;;
67456;SDS011;54319;52.038;4.640;2023-08-07T00:35:43;9.50;;;2.20;;
67456;SDS011;54319;52.038;4.640;2023-08-07T00:38:10;5.60;;;1.77;;
67456;SDS011;54319;52.038;4.640;2023-08-07T00:40:37;6.80;;;2.23;;
67456;SDS011;54319;52.038;4.640;2023-08-07T00:43:04;7.75;;;2.00;;
67456;SDS011;54319;52.038;4.640;2023-08-07T00:45:34;7.00;;;2.13;;
67456;SDS011;54319;52.038;4.640;2023-08-07T00:48:03;10.98;;;2.00;;
67456;SDS011;54319;52.038;4.640;2023-08-07T00:50:31;6.03;;;1.90;;
67456;SDS011;54319;52.038;4.640;2023-08-07T00:52:58;7.20;;;1.63;;
67456;SDS011;54319;52.038;4.640;2023-08-07T00:55:26;6.22;;;1.90;;
67456;SDS011;54319;52.038;4.640;2023-08-07T00:57:53;10.93;;;2.00;;
67456;SDS011;54319;52.038;4.640;2023-08-07T01:00:19;9.47;;;2.00;;
67456;SDS011;54319;52.038;4.640;2023-08-07T01:02:48;7.95;;;2.17;;
67456;SDS011;54319;52.038;4.640;2023-08-07T01:05:17;7.78;;;1.95;;
67456;SDS011;54319;52.038;4.640;2023-08-07T01:07:45;10.90;;;2.00;;
67456;SDS011;54319;52.038;4.640;2023-08-07T01:10:16;10.00;;;2.47;;
67456;SDS011;54319;52.038;4.640;2023-08-07T01:12:45;8.38;;;2.78;;
67456;SDS011;54319;52.038;4.640;2023-08-07T01:15:18;10.65;;;1.92;;
67456;SDS011;54319;52.038;4.640;2023-08-07T01:17:51;9.07;;;2.10;;
67456;SDS011;54319;52.038;4.640;2023-08-07T01:20:20;7.82;;;1.85;;
67456;SDS011;54319;52.038;4.640;2023-08-07T01:22:48;15.13;;;2.55;;
67456;SDS011;54319;52.038;4.640;2023-08-07T01:25:15;9.25;;;2.33;;
67456;SDS011;54319;52.038;4.640;2023-08-07T01:27:42;9.77;;;2.08;;
67456;SDS011;54319;52.038;4.640;2023-08-07T01:30:14;9.95;;;2.47;;
67456;SDS011;54319;52.038;4.640;2023-08-07T01:32:48;12.30;;;2.47;;
67456;SDS011;54319;52.038;4.640;2023-08-07T01:35:21;9.88;;;2.10;;
67456;SDS011;54319;52.038;4.640;2023-08-07T01:37:53;8.35;;;2.15;;
67456;SDS011;54319;52.038;4.640;2023-08-07T01:40:21;11.85;;;2.40;;
67456;SDS011;54319;52.038;4.640;2023-08-07T01:42:49;11.73;;;2.58;;
67456;SDS011;54319;52.038;4.640;2023-08-07T01:45:21;9.82;;;2.28;;
67456;SDS011;54319;52.038;4.640;2023-08-07T01:47:49;7.97;;;2.05;;
67456;SDS011;54319;52.038;4.640;2023-08-07T01:50:17;5.82;;;2.03;;
67456;SDS011;54319;52.038;4.640;2023-08-07T01:52:44;6.97;;;2.13;;
67456;SDS011;54319;52.038;4.640;2023-08-07T01:55:12;11.90;;;2.63;;
67456;SDS011;54319;52.038;4.640;2023-08-07T01:57:38;8.55;;;2.10;;
67456;SDS011;54319;52.038;4.640;2023-08-07T02:00:06;8.05;;;2.47;;
67456;SDS011;54319;52.038;4.640;2023-08-07T02:02:33;10.07;;;2.30;;
67456;SDS011;54319;52.038;4.640;2023-08-07T02:05:00;8.55;;;2.10;;
67456;SDS011;54319;52.038;4.640;2023-08-07T02:07:27;9.90;;;2.25;;
67456;SDS011;54319;52.038;4.640;2023-08-07T02:09:54;11.30;;;2.33;;
67456;SDS011;54319;52.038;4.640;2023-08-07T02:12:22;6.67;;;2.20;;
67456;SDS011;54319;52.038;4.640;2023-08-07T02:14:49;8.43;;;2.05;;
67456;SDS011;54319;52.038;4.640;2023-08-07T02:17:16;9.17;;;2.07;;
67456;SDS011;54319;52.038;4.640;2023-08-07T02:19:42;11.83;;;2.07;;
67456;SDS011;54319;52.038;4.640;2023-08-07T02:22:09;10.40;;;2.27;;
67456;SDS011;54319;52.038;4.640;2023-08-07T02:24:36;8.73;;;2.47;;
67456;SDS011;54319;52.038;4.640;2023-08-07T02:27:02;10.37;;;2.20;;
67456;SDS011;54319;52.038;4.640;2023-08-07T02:29:31;11.25;;;2.70;;
67456;SDS011;54319;52.038;4.640;2023-08-07T02:31:59;8.63;;;2.20;;
67456;SDS011;54319;52.038;4.640;2023-08-07T02:34:26;8.48;;;1.98;;
67456;SDS011;54319;52.038;4.640;2023-08-07T02:36:52;5.67;;;2.17;;
67456;SDS011;54319;52.038;4.640;2023-08-07T02:39:19;9.37;;;2.13;;
67456;SDS011;54319;52.038;4.640;2023-08-07T02:41:45;7.63;;;2.17;;
67456;SDS011;54319;52.038;4.640;2023-08-07T02:44:15;7.65;;;1.88;;
67456;SDS011;54319;52.038;4.640;2023-08-07T02:46:43;11.27;;;2.05;;
67456;SDS011;54319;52.038;4.640;2023-08-07T02:49:10;9.25;;;2.00;;
67456;SDS011;54319;52.038;4.640;2023-08-07T02:51:37;9.90;;;1.85;;
67456;SDS011;54319;52.038;4.640;2023-08-07T02:54:03;5.20;;;1.60;;
67456;SDS011;54319;52.038;4.640;2023-08-07T02:56:31;5.72;;;1.50;;
67456;SDS011;54319;52.038;4.640;2023-08-07T02:58:58;7.13;;;1.75;;
67456;SDS011;54319;52.038;4.640;2023-08-07T03:01:26;6.50;;;1.85;;
67456;SDS011;54319;52.038;4.640;2023-08-07T03:03:54;4.88;;;1.45;;
67456;SDS011;54319;52.038;4.640;2023-08-07T03:06:21;5.25;;;1.35;;
67456;SDS011;54319;52.038;4.640;2023-08-07T03:08:48;8.10;;;1.58;;
67456;SDS011;54319;52.038;4.640;2023-08-07T03:11:14;12.13;;;1.67;;
67456;SDS011;54319;52.038;4.640;2023-08-07T03:13:41;4.03;;;1.40;;
67456;SDS011;54319;52.038;4.640;2023-08-07T03:16:09;9.10;;;1.73;;
67456;SDS011;54319;52.038;4.640;2023-08-07T03:18:36;9.25;;;1.75;;
67456;SDS011;54319;52.038;4.640;2023-08-07T03:21:04;6.90;;;1.83;;
67456;SDS011;54319;52.038;4.640;2023-08-07T03:23:30;6.63;;;1.98;;
67456;SDS011;54319;52.038;4.640;2023-08-07T03:26:03;11.43;;;2.35;;
67456;SDS011;54319;52.038;4.640;2023-08-07T03:28:30;7.95;;;2.20;;
67456;SDS011;54319;52.038;4.640;2023-08-07T03:30:58;9.00;;;2.13;;
67456;SDS011;54319;52.038;4.640;2023-08-07T03:33:25;9.38;;;2.13;;
67456;SDS011;54319;52.038;4.640;2023-08-07T03:35:51;6.65;;;2.22;;
67456;SDS011;54319;52.038;4.640;2023-08-07T03:38:19;8.17;;;2.07;;
67456;SDS011;54319;52.038;4.640;2023-08-07T03:40:46;9.30;;;2.25;;
67456;SDS011;54319;52.038;4.640;2023-08-07T03:43:13;7.22;;;2.03;;
67456;SDS011;54319;52.038;4.640;2023-08-07T03:45:40;10.23;;;3.03;;
67456;SDS011;54319;52.038;4.640;2023-08-07T03:48:06;8.73;;;2.30;;
67456;SDS011;54319;52.038;4.640;2023-08-07T03:50:33;14.03;;;2.13;;
67456;SDS011;54319;52.038;4.640;2023-08-07T03:53:02;6.57;;;1.90;;
67456;SDS011;54319;52.038;4.640;2023-08-07T03:55:33;5.53;;;2.00;;
67456;SDS011;54319;52.038;4.640;2023-08-07T03:57:59;5.50;;;1.98;;
67456;SDS011;54319;52.038;4.640;2023-08-07T04:00:26;11.60;;;2.55;;
67456;SDS011;54319;52.038;4.640;2023-08-07T04:02:53;6.10;;;2.00;;
67456;SDS011;54319;52.038;4.640;2023-08-07T04:05:19;7.97;;;2.20;;
67456;SDS011;54319;52.038;4.640;2023-08-07T04:07:46;7.43;;;2.15;;
67456;SDS011;54319;52.038;4.640;2023-08-07T04:10:13;9.23;;;2.13;;
67456;SDS011;54319;52.038;4.640;2023-08-07T04:12:41;14.20;;;2.28;;
67456;SDS011;54319;52.038;4.640;2023-08-07T04:15:07;9.35;;;2.25;;
67456;SDS011;54319;52.038;4.640;2023-08-07T04:20:01;10.93;;;2.58;;
67456;SDS011;54319;52.038;4.640;2023-08-07T04:22:30;10.38;;;2.30;;
67456;SDS011;54319;52.038;4.640;2023-08-07T04:24:56;14.30;;;2.92;;
67456;SDS011;54319;52.038;4.640;2023-08-07T04:27:25;11.20;;;2.58;;
67456;SDS011;54319;52.038;4.640;2023-08-07T04:29:53;14.98;;;2.30;;
67456;SDS011;54319;52.038;4.640;2023-08-07T04:32:19;14.77;;;2.60;;
67456;SDS011;54319;52.038;4.640;2023-08-07T04:34:46;13.40;;;2.50;;
67456;SDS011;54319;52.038;4.640;2023-08-07T04:37:13;13.87;;;2.20;;
67456;SDS011;54319;52.038;4.640;2023-08-07T04:39:39;10.43;;;2.40;;
67456;SDS011;54319;52.038;4.640;2023-08-07T04:42:06;5.90;;;1.90;;
67456;SDS011;54319;52.038;4.640;2023-08-07T04:44:33;9.18;;;1.95;;
67456;SDS011;54319;52.038;4.640;2023-08-07T04:47:01;8.13;;;1.80;;
67456;SDS011;54319;52.038;4.640;2023-08-07T04:49:27;6.88;;;1.90;;
67456;SDS011;54319;52.038;4.640;2023-08-07T04:51:54;12.77;;;2.20;;
67456;SDS011;54319;52.038;4.640;2023-08-07T04:54:21;7.07;;;1.77;;
67456;SDS011;54319;52.038;4.640;2023-08-07T04:56:47;9.02;;;2.35;;
67456;SDS011;54319;52.038;4.640;2023-08-07T04:59:14;7.50;;;1.50;;
67456;SDS011;54319;52.038;4.640;2023-08-07T05:01:40;8.83;;;2.10;;
67456;SDS011;54319;52.038;4.640;2023-08-07T05:04:09;7.68;;;2.00;;
67456;SDS011;54319;52.038;4.640;2023-08-07T05:06:35;6.43;;;2.00;;
67456;SDS011;54319;52.038;4.640;2023-08-07T05:09:02;9.77;;;2.20;;
67456;SDS011;54319;52.038;4.640;2023-08-07T05:11:29;7.70;;;1.80;;
67456;SDS011;54319;52.038;4.640;2023-08-07T05:13:56;8.02;;;2.70;;
67456;SDS011;54319;52.038;4.640;2023-08-07T05:16:22;8.13;;;2.03;;
67456;SDS011;54319;52.038;4.640;2023-08-07T05:18:49;7.10;;;1.90;;
67456;SDS011;54319;52.038;4.640;2023-08-07T05:21:17;5.78;;;1.73;;
67456;SDS011;54319;52.038;4.640;2023-08-07T05:23:44;8.63;;;1.88;;
67456;SDS011;54319;52.038;4.640;2023-08-07T05:26:10;10.77;;;2.00;;
67456;SDS011;54319;52.038;4.640;2023-08-07T05:28:37;8.63;;;1.97;;
67456;SDS011;54319;52.038;4.640;2023-08-07T05:31:03;6.37;;;2.63;;
67456;SDS011;54319;52.038;4.640;2023-08-07T05:33:30;7.53;;;2.00;;
67456;SDS011;54319;52.038;4.640;2023-08-07T05:35:57;12.70;;;2.30;;
67456;SDS011;54319;52.038;4.640;2023-08-07T05:38:25;10.35;;;2.38;;
67456;SDS011;54319;52.038;4.640;2023-08-07T05:40:52;10.15;;;2.42;;
67456;SDS011;54319;52.038;4.640;2023-08-07T05:43:18;12.15;;;2.63;;
67456;SDS011;54319;52.038;4.640;2023-08-07T05:45:45;8.53;;;2.37;;
67456;SDS011;54319;52.038;4.640;2023-08-07T05:48:14;7.30;;;2.03;;
67456;SDS011;54319;52.038;4.640;2023-08-07T05:50:41;12.38;;;2.83;;
67456;SDS011;54319;52.038;4.640;2023-08-07T05:53:08;5.57;;;2.00;;
67456;SDS011;54319;52.038;4.640;2023-08-07T05:55:36;13.73;;;2.60;;
67456;SDS011;54319;52.038;4.640;2023-08-07T05:58:05;14.65;;;2.33;;
67456;SDS011;54319;52.038;4.640;2023-08-07T06:00:32;10.70;;;3.38;;
67456;SDS011;54319;52.038;4.640;2023-08-07T06:02:59;12.02;;;2.60;;
67456;SDS011;54319;52.038;4.640;2023-08-07T06:05:25;10.43;;;2.03;;
67456;SDS011;54319;52.038;4.640;2023-08-07T06:07:52;7.00;;;2.33;;
67456;SDS011;54319;52.038;4.640;2023-08-07T06:10:19;10.37;;;2.17;;
67456;SDS011;54319;52.038;4.640;2023-08-07T06:12:47;6.23;;;1.83;;
67456;SDS011;54319;52.038;4.640;2023-08-07T06:15:13;13.02;;;3.13;;
67456;SDS011;54319;52.038;4.640;2023-08-07T06:17:40;9.45;;;2.38;;
67456;SDS011;54319;52.038;4.640;2023-08-07T06:20:07;4.93;;;2.08;;
67456;SDS011;54319;52.038;4.640;2023-08-07T06:22:36;7.78;;;2.15;;
67456;SDS011;54319;52.038;4.640;2023-08-07T06:25:03;8.00;;;2.10;;
67456;SDS011;54319;52.038;4.640;2023-08-07T06:27:30;7.30;;;2.42;;
67456;SDS011;54319;52.038;4.640;2023-08-07T06:29:58;9.23;;;2.70;;
67456;SDS011;54319;52.038;4.640;2023-08-07T06:32:25;7.88;;;2.10;;
67456;SDS011;54319;52.038;4.640;2023-08-07T06:34:52;9.63;;;2.65;;
67456;SDS011;54319;52.038;4.640;2023-08-07T06:37:19;8.77;;;2.65;;
67456;SDS011;54319;52.038;4.640;2023-08-07T06:39:46;15.02;;;2.15;;
67456;SDS011;54319;52.038;4.640;2023-08-07T06:42:13;12.30;;;2.63;;
67456;SDS011;54319;52.038;4.640;2023-08-07T06:44:39;8.03;;;2.00;;
67456;SDS011;54319;52.038;4.640;2023-08-07T06:47:07;11.97;;;2.40;;
67456;SDS011;54319;52.038;4.640;2023-08-07T06:49:34;8.38;;;2.13;;
67456;SDS011;54319;52.038;4.640;2023-08-07T06:52:01;9.13;;;2.38;;
67456;SDS011;54319;52.038;4.640;2023-08-07T06:54:28;6.22;;;1.80;;
67456;SDS011;54319;52.038;4.640;2023-08-07T06:56:54;14.07;;;2.30;;
67456;SDS011;54319;52.038;4.640;2023-08-07T06:59:21;3.40;;;1.67;;
67456;SDS011;54319;52.038;4.640;2023-08-07T07:01:48;11.13;;;2.20;;
67456;SDS011;54319;52.038;4.640;2023-08-07T07:04:17;7.50;;;2.17;;
67456;SDS011;54319;52.038;4.640;2023-08-07T07:06:44;5.35;;;1.80;;
67456;SDS011;54319;52.038;4.640;2023-08-07T07:09:10;11.45;;;2.35;;
67456;SDS011;54319;52.038;4.640;2023-08-07T07:11:41;8.02;;;1.95;;
67456;SDS011;54319;52.038;4.640;2023-08-07T07:14:08;8.55;;;2.20;;
67456;SDS011;54319;52.038;4.640;2023-08-07T07:16:35;8.18;;;2.10;;
67456;SDS011;54319;52.038;4.640;2023-08-07T07:19:03;8.50;;;2.10;;
67456;SDS011;54319;52.038;4.640;2023-08-07T07:21:32;8.68;;;1.98;;
67456;SDS011;54319;52.038;4.640;2023-08-07T07:23:59;9.82;;;2.10;;
67456;SDS011;54319;52.038;4.640;2023-08-07T07:26:26;5.60;;;1.67;;
67456;SDS011;54319;52.038;4.640;2023-08-07T07:28:52;8.35;;;2.10;;
67456;SDS011;54319;52.038;4.640;2023-08-07T07:31:20;7.15;;;2.00;;
67456;SDS011;54319;52.038;4.640;2023-08-07T07:33:47;9.75;;;2.13;;
67456;SDS011;54319;52.038;4.640;2023-08-07T07:36:15;7.10;;;1.95;;
67456;SDS011;54319;52.038;4.640;2023-08-07T07:38:43;7.95;;;1.90;;
67456;SDS011;54319;52.038;4.640;2023-08-07T07:41:12;7.72;;;1.98;;
67456;SDS011;54319;52.038;4.640;2023-08-07T07:43:39;6.55;;;1.58;;
67456;SDS011;54319;52.038;4.640;2023-08-07T07:46:05;9.38;;;1.73;;
67456;SDS011;54319;52.038;4.640;2023-08-07T07:48:32;7.45;;;1.75;;
67456;SDS011;54319;52.038;4.640;2023-08-07T07:50:59;6.60;;;1.50;;
67456;SDS011;54319;52.038;4.640;2023-08-07T07:53:26;4.78;;;1.50;;
67456;SDS011;54319;52.038;4.640;2023-08-07T07:55:54;7.90;;;1.80;;
67456;SDS011;54319;52.038;4.640;2023-08-07T07:58:21;5.22;;;1.58;;
67456;SDS011;54319;52.038;4.640;2023-08-07T08:00:48;9.77;;;1.88;;
67456;SDS011;54319;52.038;4.640;2023-08-07T08:03:17;5.07;;;1.40;;
67456;SDS011;54319;52.038;4.640;2023-08-07T08:05:44;7.28;;;1.48;;
67456;SDS011;54319;52.038;4.640;2023-08-07T08:08:11;5.68;;;2.65;;
67456;SDS011;54319;52.038;4.640;2023-08-07T08:10:39;7.03;;;1.77;;
67456;SDS011;54319;52.038;4.640;2023-08-07T08:13:09;4.15;;;1.48;;
67456;SDS011;54319;52.038;4.640;2023-08-07T08:15:36;3.58;;;1.40;;
67456;SDS011;54319;52.038;4.640;2023-08-07T08:18:03;5.80;;;1.58;;
67456;SDS011;54319;52.038;4.640;2023-08-07T08:20:29;6.68;;;1.90;;
67456;SDS011;54319;52.038;4.640;2023-08-07T08:22:57;7.28;;;1.90;;
67456;SDS011;54319;52.038;4.640;2023-08-07T08:25:24;8.68;;;1.83;;
67456;SDS011;54319;52.038;4.640;2023-08-07T08:27:51;10.82;;;1.98;;
67456;SDS011;54319;52.038;4.640;2023-08-07T08:30:19;4.10;;;1.40;;
67456;SDS011;54319;52.038;4.640;2023-08-07T08:32:45;4.43;;;1.70;;
67456;SDS011;54319;52.038;4.640;2023-08-07T08:35:12;1.90;;;0.90;;
67456;SDS011;54319;52.038;4.640;2023-08-07T08:37:39;4.03;;;1.55;;
67456;SDS011;54319;52.038;4.640;2023-08-07T08:40:07;6.63;;;1.63;;
67456;SDS011;54319;52.038;4.640;2023-08-07T08:42:37;3.88;;;1.20;;
67456;SDS011;54319;52.038;4.640;2023-08-07T08:45:06;5.78;;;1.58;;
67456;SDS011;54319;52.038;4.640;2023-08-07T08:47:37;4.03;;;1.38;;
67456;SDS011;54319;52.038;4.640;2023-08-07T08:50:06;5.65;;;1.80;;
67456;SDS011;54319;52.038;4.640;2023-08-07T08:52:34;9.27;;;1.70;;
67456;SDS011;54319;52.038;4.640;2023-08-07T08:55:03;6.05;;;1.30;;
67456;SDS011;54319;52.038;4.640;2023-08-07T08:57:30;5.13;;;1.50;;
67456;SDS011;54319;52.038;4.640;2023-08-07T08:59:56;4.30;;;1.75;;
67456;SDS011;54319;52.038;4.640;2023-08-07T09:02:24;5.00;;;1.60;;
67456;SDS011;54319;52.038;4.640;2023-08-07T09:07:19;6.45;;;1.35;;
67456;SDS011;54319;52.038;4.640;2023-08-07T09:09:46;6.70;;;1.52;;
67456;SDS011;54319;52.038;4.640;2023-08-07T09:12:16;7.97;;;1.63;;
67456;SDS011;54319;52.038;4.640;2023-08-07T09:14:47;3.80;;;1.23;;
67456;SDS011;54319;52.038;4.640;2023-08-07T09:17:20;5.50;;;1.92;;
67456;SDS011;54319;52.038;4.640;2023-08-07T09:19:50;8.43;;;1.70;;
67456;SDS011;54319;52.038;4.640;2023-08-07T09:22:19;6.40;;;1.63;;
67456;SDS011;54319;52.038;4.640;2023-08-07T09:24:46;9.30;;;1.98;;
67456;SDS011;54319;52.038;4.640;2023-08-07T09:27:14;11.52;;;1.80;;
67456;SDS011;54319;52.038;4.640;2023-08-07T09:29:41;5.65;;;1.40;;
67456;SDS011;54319;52.038;4.640;2023-08-07T09:32:11;12.25;;;1.60;;
67456;SDS011;54319;52.038;4.640;2023-08-07T09:34:39;10.63;;;1.90;;
67456;SDS011;54319;52.038;4.640;2023-08-07T09:37:06;8.43;;;1.75;;
67456;SDS011;54319;52.038;4.640;2023-08-07T09:39:34;6.10;;;1.55;;
67456;SDS011;54319;52.038;4.640;2023-08-07T09:42:02;5.10;;;1.38;;
67456;SDS011;54319;52.038;4.640;2023-08-07T09:44:34;6.28;;;1.55;;
67456;SDS011;54319;52.038;4.640;2023-08-07T09:47:01;4.13;;;1.42;;
67456;SDS011;54319;52.038;4.640;2023-08-07T09:49:38;8.48;;;1.60;;
67456;SDS011;54319;52.038;4.640;2023-08-07T09:52:05;5.82;;;1.33;;
67456;SDS011;54319;52.038;4.640;2023-08-07T09:54:34;6.55;;;1.50;;
67456;SDS011;54319;52.038;4.640;2023-08-07T09:57:02;5.55;;;2.03;;
67456;SDS011;54319;52.038;4.640;2023-08-07T09:59:31;4.60;;;1.30;;
67456;SDS011;54319;52.038;4.640;2023-08-07T10:01:59;5.15;;;1.67;;
67456;SDS011;54319;52.038;4.640;2023-08-07T10:04:28;6.75;;;1.65;;
67456;SDS011;54319;52.038;4.640;2023-08-07T10:06:56;3.50;;;1.30;;
67456;SDS011;54319;52.038;4.640;2023-08-07T10:09:23;6.65;;;1.67;;
67456;SDS011;54319;52.038;4.640;2023-08-07T10:11:53;3.95;;;1.30;;
67456;SDS011;54319;52.038;4.640;2023-08-07T10:14:21;8.77;;;1.73;;
67456;SDS011;54319;52.038;4.640;2023-08-07T10:19:16;6.35;;;1.40;;
67456;SDS011;54319;52.038;4.640;2023-08-07T10:21:43;7.15;;;1.60;;
67456;SDS011;54319;52.038;4.640;2023-08-07T10:24:11;5.47;;;1.45;;
67456;SDS011;54319;52.038;4.640;2023-08-07T10:26:41;3.83;;;1.30;;
67456;SDS011;54319;52.038;4.640;2023-08-07T10:29:12;5.32;;;1.35;;
67456;SDS011;54319;52.038;4.640;2023-08-07T10:31:43;3.72;;;1.23;;
67456;SDS011;54319;52.038;4.640;2023-08-07T10:34:11;3.55;;;1.20;;
67456;SDS011;54319;52.038;4.640;2023-08-07T10:36:38;3.85;;;1.52;;
67456;SDS011;54319;52.038;4.640;2023-08-07T10:39:06;5.30;;;1.55;;
67456;SDS011;54319;52.038;4.640;2023-08-07T10:41:39;5.65;;;1.50;;
67456;SDS011;54319;52.038;4.640;2023-08-07T10:44:18;5.25;;;1.35;;
67456;SDS011;54319;52.038;4.640;2023-08-07T10:46:49;5.35;;;1.38;;
67456;SDS011;54319;52.038;4.640;2023-08-07T10:49:29;3.65;;;1.25;;
67456;SDS011;54319;52.038;4.640;2023-08-07T10:51:57;6.45;;;1.35;;
67456;SDS011;54319;52.038;4.640;2023-08-07T10:54:24;4.25;;;1.40;;
67456;SDS011;54319;52.038;4.640;2023-08-07T10:56:52;6.85;;;1.27;;
67456;SDS011;54319;52.038;4.640;2023-08-07T10:59:21;7.07;;;1.40;;
67456;SDS011;54319;52.038;4.640;2023-08-07T11:01:51;3.70;;;1.40;;
67456;SDS011;54319;52.038;4.640;2023-08-07T11:04:21;8.35;;;1.23;;
67456;SDS011;54319;52.038;4.640;2023-08-07T11:06:51;8.13;;;1.40;;
67456;SDS011;54319;52.038;4.640;2023-08-07T11:09:18;4.55;;;1.30;;
67456;SDS011;54319;52.038;4.640;2023-08-07T11:11:45;3.65;;;1.17;;
67456;SDS011;54319;52.038;4.640;2023-08-07T11:14:13;3.80;;;1.30;;
67456;SDS011;54319;52.038;4.640;2023-08-07T11:16:42;9.15;;;1.58;;
67456;SDS011;54319;52.038;4.640;2023-08-07T11:19:11;3.08;;;1.30;;
67456;SDS011;54319;52.038;4.640;2023-08-07T11:21:39;8.88;;;1.20;;
67456;SDS011;54319;52.038;4.640;2023-08-07T11:24:07;7.13;;;1.20;;
67456;SDS011;54319;52.038;4.640;2023-08-07T11:26:34;4.57;;;1.33;;
67456;SDS011;54319;52.038;4.640;2023-08-07T11:29:01;3.65;;;1.10;;
67456;SDS011;54319;52.038;4.640;2023-08-07T11:31:29;3.83;;;1.38;;
67456;SDS011;54319;52.038;4.640;2023-08-07T11:33:58;4.43;;;1.50;;
67456;SDS011;54319;52.038;4.640;2023-08-07T11:36:24;4.43;;;1.40;;
67456;SDS011;54319;52.038;4.640;2023-08-07T11:38:52;2.22;;;1.10;;
67456;SDS011;54319;52.038;4.640;2023-08-07T11:41:19;4.68;;;1.65;;
67456;SDS011;54319;52.038;4.640;2023-08-07T11:43:45;7.22;;;1.27;;
67456;SDS011;54319;52.038;4.640;2023-08-07T11:46:13;2.90;;;0.93;;
67456;SDS011;54319;52.038;4.640;2023-08-07T11:48:41;2.20;;;0.85;;
67456;SDS011;54319;52.038;4.640;2023-08-07T11:51:10;3.42;;;0.95;;
67456;SDS011;54319;52.038;4.640;2023-08-07T11:53:39;2.17;;;1.25;;
67456;SDS011;54319;52.038;4.640;2023-08-07T11:56:07;4.53;;;1.38;;
67456;SDS011;54319;52.038;4.640;2023-08-07T11:58:39;1.83;;;1.10;;
67456;SDS011;54319;52.038;4.640;2023-08-07T12:01:09;4.45;;;1.20;;
67456;SDS011;54319;52.038;4.640;2023-08-07T12:03:38;3.60;;;1.40;;
67456;SDS011;54319;52.038;4.640;2023-08-07T12:06:07;6.50;;;1.70;;
67456;SDS011;54319;52.038;4.640;2023-08-07T12:08:36;3.40;;;1.42;;
67456;SDS011;54319;52.038;4.640;2023-08-07T12:11:04;3.80;;;1.50;;
67456;SDS011;54319;52.038;4.640;2023-08-07T12:13:32;3.47;;;1.48;;
67456;SDS011;54319;52.038;4.640;2023-08-07T12:16:00;4.85;;;1.35;;
67456;SDS011;54319;52.038;4.640;2023-08-07T12:18:27;6.35;;;1.40;;
67456;SDS011;54319;52.038;4.640;2023-08-07T12:20:58;4.25;;;1.90;;
67456;SDS011;54319;52.038;4.640;2023-08-07T12:23:25;5.90;;;1.70;;
67456;SDS011;54319;52.038;4.640;2023-08-07T12:28:20;6.15;;;1.50;;
67456;SDS011;54319;52.038;4.640;2023-08-07T12:30:47;2.65;;;1.33;;
67456;SDS011;54319;52.038;4.640;2023-08-07T12:35:41;2.63;;;1.25;;
67456;SDS011;54319;52.038;4.640;2023-08-07T12:38:08;3.45;;;1.50;;
67456;SDS011;54319;52.038;4.640;2023-08-07T12:40:35;6.13;;;2.10;;
67456;SDS011;54319;52.038;4.640;2023-08-07T12:43:03;2.85;;;1.10;;
67456;SDS011;54319;52.038;4.640;2023-08-07T12:45:30;5.38;;;0.98;;
67456;SDS011;54319;52.038;4.640;2023-08-07T12:47:57;4.47;;;1.50;;
67456;SDS011;54319;52.038;4.640;2023-08-07T12:50:24;4.00;;;1.58;;
67456;SDS011;54319;52.038;4.640;2023-08-07T12:52:51;3.40;;;1.42;;
67456;SDS011;54319;52.038;4.640;2023-08-07T12:55:17;2.83;;;1.20;;
67456;SDS011;54319;52.038;4.640;2023-08-07T12:57:44;3.30;;;1.40;;
67456;SDS011;54319;52.038;4.640;2023-08-07T13:02:40;3.13;;;1.33;;
67456;SDS011;54319;52.038;4.640;2023-08-07T13:05:08;5.90;;;1.80;;
67456;SDS011;54319;52.038;4.640;2023-08-07T13:07:35;5.38;;;1.83;;
67456;SDS011;54319;52.038;4.640;2023-08-07T13:10:03;4.43;;;1.70;;
67456;SDS011;54319;52.038;4.640;2023-08-07T13:12:34;8.60;;;1.70;;
67456;SDS011;54319;52.038;4.640;2023-08-07T13:15:01;5.60;;;1.50;;
67456;SDS011;54319;52.038;4.640;2023-08-07T13:17:31;4.40;;;1.60;;
67456;SDS011;54319;52.038;4.640;2023-08-07T13:19:58;2.88;;;1.50;;
67456;SDS011;54319;52.038;4.640;2023-08-07T13:22:25;3.28;;;1.60;;
67456;SDS011;54319;52.038;4.640;2023-08-07T13:24:53;2.60;;;1.60;;
67456;SDS011;54319;52.038;4.640;2023-08-07T13:27:20;5.63;;;1.65;;
67456;SDS011;54319;52.038;4.640;2023-08-07T13:29:47;4.28;;;1.50;;
67456;SDS011;54319;52.038;4.640;2023-08-07T13:32:14;4.75;;;2.20;;
67456;SDS011;54319;52.038;4.640;2023-08-07T13:34:44;3.20;;;1.85;;
67456;SDS011;54319;52.038;4.640;2023-08-07T13:37:11;4.15;;;1.80;;
67456;SDS011;54319;52.038;4.640;2023-08-07T13:39:39;3.67;;;1.70;;
67456;SDS011;54319;52.038;4.640;2023-08-07T13:42:06;3.75;;;1.67;;
67456;SDS011;54319;52.038;4.640;2023-08-07T13:44:33;5.10;;;2.13;;
67456;SDS011;54319;52.038;4.640;2023-08-07T13:47:00;6.10;;;1.90;;
67456;SDS011;54319;52.038;4.640;2023-08-07T13:49:27;5.00;;;1.90;;
67456;SDS011;54319;52.038;4.640;2023-08-07T13:51:55;4.18;;;1.67;;
67456;SDS011;54319;52.038;4.640;2023-08-07T13:54:22;3.70;;;1.73;;
67456;SDS011;54319;52.038;4.640;2023-08-07T13:56:49;5.68;;;1.92;;
67456;SDS011;54319;52.038;4.640;2023-08-07T13:59:16;4.80;;;2.03;;
67456;SDS011;54319;52.038;4.640;2023-08-07T14:01:43;3.20;;;2.05;;
67456;SDS011;54319;52.038;4.640;2023-08-07T14:04:09;6.65;;;2.30;;
67456;SDS011;54319;52.038;4.640;2023-08-07T14:06:36;7.70;;;2.25;;
67456;SDS011;54319;52.038;4.640;2023-08-07T14:09:05;5.78;;;2.00;;
67456;SDS011;54319;52.038;4.640;2023-08-07T14:11:34;8.63;;;2.20;;
67456;SDS011;54319;52.038;4.640;2023-08-07T14:14:01;8.30;;;2.08;;
67456;SDS011;54319;52.038;4.640;2023-08-07T14:16:27;4.97;;;2.10;;
67456;SDS011;54319;52.038;4.640;2023-08-07T14:18:54;4.35;;;2.00;;
67456;SDS011;54319;52.038;4.640;2023-08-07T14:21:21;4.95;;;2.60;;
67456;SDS011;54319;52.038;4.640;2023-08-07T14:23:48;6.13;;;2.47;;
67456;SDS011;54319;52.038;4.640;2023-08-07T14:26:16;4.93;;;2.28;;
67456;SDS011;54319;52.038;4.640;2023-08-07T14:28:43;5.57;;;2.40;;
67456;SDS011;54319;52.038;4.640;2023-08-07T14:31:10;3.92;;;2.25;;
67456;SDS011;54319;52.038;4.640;2023-08-07T14:33:36;3.22;;;1.80;;
67456;SDS011;54319;52.038;4.640;2023-08-07T14:36:04;3.78;;;2.15;;
67456;SDS011;54319;52.038;4.640;2023-08-07T14:40:57;2.67;;;1.92;;
67456;SDS011;54319;52.038;4.640;2023-08-07T14:45:55;4.28;;;2.00;;
67456;SDS011;54319;52.038;4.640;2023-08-07T14:48:21;3.67;;;1.63;;
67456;SDS011;54319;52.038;4.640;2023-08-07T14:50:48;2.65;;;1.67;;
67456;SDS011;54319;52.038;4.640;2023-08-07T14:53:15;3.40;;;1.58;;
67456;SDS011;54319;52.038;4.640;2023-08-07T14:55:43;2.50;;;1.50;;
67456;SDS011;54319;52.038;4.640;2023-08-07T14:58:10;2.25;;;1.33;;
67456;SDS011;54319;52.038;4.640;2023-08-07T15:00:38;2.20;;;1.48;;
67456;SDS011;54319;52.038;4.640;2023-08-07T15:03:05;2.13;;;1.20;;
67456;SDS011;54319;52.038;4.640;2023-08-07T15:05:32;3.65;;;1.50;;
67456;SDS011;54319;52.038;4.640;2023-08-07T15:07:59;3.28;;;1.30;;